sensor_id;sensor_type;location;lat;lon;timestamp;P1;durP1;ratioP1;P2;durP2;ratioP2
63193;SDS011;49289;51.670;5.624;2023-04-06T00:00:51;15.10;;;9.70;;
63193;SDS011;49289;51.670;5.624;2023-04-06T00:02:38;15.10;;;9.70;;
63193;SDS011;49289;51.670;5.624;2023-04-06T00:04:25;16.30;;;9.90;;
63193;SDS011;49289;51.670;5.624;2023-04-06T00:06:12;16.50;;;9.50;;
63193;SDS011;49289;51.670;5.624;2023-04-06T00:07:59;15.20;;;9.60;;
63193;SDS011;49289;51.670;5.624;2023-04-06T00:09:46;15.20;;;9.40;;
63193;SDS011;49289;51.670;5.624;2023-04-06T00:11:18;12.90;;;9.40;;
63193;SDS011;49289;51.670;5.624;2023-04-06T00:13:05;15.70;;;9.30;;
63193;SDS011;49289;51.670;5.624;2023-04-06T00:14:52;15.00;;;9.10;;
63193;SDS011;49289;51.670;5.624;2023-04-06T00:16:40;14.10;;;9.40;;
63193;SDS011;49289;51.670;5.624;2023-04-06T00:18:28;13.50;;;9.70;;
63193;SDS011;49289;51.670;5.624;2023-04-06T00:20:16;13.70;;;9.10;;
63193;SDS011;49289;51.670;5.624;2023-04-06T00:22:03;13.80;;;9.10;;
63193;SDS011;49289;51.670;5.624;2023-04-06T00:23:50;13.00;;;9.00;;
63193;SDS011;49289;51.670;5.624;2023-04-06T00:25:37;15.10;;;9.50;;
63193;SDS011;49289;51.670;5.624;2023-04-06T00:27:24;12.90;;;8.90;;
63193;SDS011;49289;51.670;5.624;2023-04-06T00:29:11;15.30;;;9.30;;
63193;SDS011;49289;51.670;5.624;2023-04-06T00:30:58;16.60;;;9.40;;
63193;SDS011;49289;51.670;5.624;2023-04-06T00:32:45;14.70;;;9.70;;
63193;SDS011;49289;51.670;5.624;2023-04-06T00:34:33;16.60;;;9.50;;
63193;SDS011;49289;51.670;5.624;2023-04-06T00:36:21;13.70;;;8.50;;
63193;SDS011;49289;51.670;5.624;2023-04-06T00:38:09;15.00;;;9.20;;
63193;SDS011;49289;51.670;5.624;2023-04-06T00:39:57;14.60;;;9.00;;
63193;SDS011;49289;51.670;5.624;2023-04-06T00:41:45;13.90;;;9.20;;
63193;SDS011;49289;51.670;5.624;2023-04-06T00:43:32;14.40;;;8.90;;
63193;SDS011;49289;51.670;5.624;2023-04-06T00:45:20;13.90;;;9.00;;
63193;SDS011;49289;51.670;5.624;2023-04-06T00:47:09;14.00;;;8.90;;
63193;SDS011;49289;51.670;5.624;2023-04-06T00:48:56;13.40;;;8.50;;
63193;SDS011;49289;51.670;5.624;2023-04-06T00:50:44;13.70;;;9.30;;
63193;SDS011;49289;51.670;5.624;2023-04-06T00:52:32;15.00;;;8.90;;
63193;SDS011;49289;51.670;5.624;2023-04-06T00:54:20;14.20;;;9.20;;
63193;SDS011;49289;51.670;5.624;2023-04-06T00:56:09;14.20;;;9.10;;
63193;SDS011;49289;51.670;5.624;2023-04-06T00:57:57;14.40;;;8.70;;
63193;SDS011;49289;51.670;5.624;2023-04-06T00:59:44;13.90;;;8.70;;
63193;SDS011;49289;51.670;5.624;2023-04-06T01:01:32;14.20;;;8.90;;
63193;SDS011;49289;51.670;5.624;2023-04-06T01:03:20;15.20;;;8.60;;
63193;SDS011;49289;51.670;5.624;2023-04-06T01:05:09;15.80;;;8.90;;
63193;SDS011;49289;51.670;5.624;2023-04-06T01:06:56;13.30;;;8.90;;
63193;SDS011;49289;51.670;5.624;2023-04-06T01:08:43;14.40;;;9.40;;
63193;SDS011;49289;51.670;5.624;2023-04-06T01:10:30;16.20;;;9.30;;
63193;SDS011;49289;51.670;5.624;2023-04-06T01:12:17;13.10;;;8.90;;
63193;SDS011;49289;51.670;5.624;2023-04-06T01:14:04;15.60;;;8.90;;
63193;SDS011;49289;51.670;5.624;2023-04-06T01:15:51;14.60;;;8.70;;
63193;SDS011;49289;51.670;5.624;2023-04-06T01:17:38;13.40;;;9.10;;
63193;SDS011;49289;51.670;5.624;2023-04-06T01:19:26;16.90;;;9.70;;
63193;SDS011;49289;51.670;5.624;2023-04-06T01:21:14;14.30;;;8.60;;
63193;SDS011;49289;51.670;5.624;2023-04-06T01:23:01;13.70;;;8.90;;
63193;SDS011;49289;51.670;5.624;2023-04-06T01:24:49;16.00;;;9.10;;
63193;SDS011;49289;51.670;5.624;2023-04-06T01:26:38;16.00;;;9.10;;
63193;SDS011;49289;51.670;5.624;2023-04-06T01:28:25;15.00;;;9.30;;
63193;SDS011;49289;51.670;5.624;2023-04-06T01:30:14;14.70;;;8.90;;
63193;SDS011;49289;51.670;5.624;2023-04-06T01:32:02;14.60;;;8.80;;
63193;SDS011;49289;51.670;5.624;2023-04-06T01:33:49;13.20;;;9.10;;
63193;SDS011;49289;51.670;5.624;2023-04-06T01:35:36;16.60;;;8.80;;
63193;SDS011;49289;51.670;5.624;2023-04-06T01:37:24;12.80;;;8.90;;
63193;SDS011;49289;51.670;5.624;2023-04-06T01:39:11;14.50;;;9.00;;
63193;SDS011;49289;51.670;5.624;2023-04-06T01:40:59;13.30;;;8.90;;
63193;SDS011;49289;51.670;5.624;2023-04-06T01:42:47;13.80;;;9.10;;
63193;SDS011;49289;51.670;5.624;2023-04-06T01:44:35;13.40;;;8.50;;
63193;SDS011;49289;51.670;5.624;2023-04-06T01:46:23;14.80;;;8.50;;
63193;SDS011;49289;51.670;5.624;2023-04-06T01:48:11;13.20;;;8.80;;
63193;SDS011;49289;51.670;5.624;2023-04-06T01:49:58;15.10;;;8.90;;
63193;SDS011;49289;51.670;5.624;2023-04-06T01:51:46;13.40;;;8.40;;
63193;SDS011;49289;51.670;5.624;2023-04-06T01:53:33;13.50;;;8.70;;
63193;SDS011;49289;51.670;5.624;2023-04-06T01:55:20;16.10;;;9.20;;
63193;SDS011;49289;51.670;5.624;2023-04-06T01:57:09;12.30;;;8.40;;
63193;SDS011;49289;51.670;5.624;2023-04-06T01:58:56;13.60;;;9.00;;
63193;SDS011;49289;51.670;5.624;2023-04-06T02:00:43;15.10;;;8.90;;
63193;SDS011;49289;51.670;5.624;2023-04-06T02:02:30;14.40;;;9.20;;
63193;SDS011;49289;51.670;5.624;2023-04-06T02:04:17;13.50;;;8.80;;
63193;SDS011;49289;51.670;5.624;2023-04-06T02:06:04;13.50;;;8.80;;
63193;SDS011;49289;51.670;5.624;2023-04-06T02:07:51;14.90;;;9.40;;
63193;SDS011;49289;51.670;5.624;2023-04-06T02:09:38;13.10;;;8.50;;
63193;SDS011;49289;51.670;5.624;2023-04-06T02:11:25;14.10;;;8.80;;
63193;SDS011;49289;51.670;5.624;2023-04-06T02:13:12;14.80;;;9.10;;
63193;SDS011;49289;51.670;5.624;2023-04-06T02:14:59;13.10;;;8.70;;
63193;SDS011;49289;51.670;5.624;2023-04-06T02:16:46;15.90;;;9.10;;
63193;SDS011;49289;51.670;5.624;2023-04-06T02:18:33;14.60;;;8.60;;
63193;SDS011;49289;51.670;5.624;2023-04-06T02:20:20;17.00;;;9.40;;
63193;SDS011;49289;51.670;5.624;2023-04-06T02:22:07;16.40;;;8.90;;
63193;SDS011;49289;51.670;5.624;2023-04-06T02:23:54;14.10;;;9.20;;
63193;SDS011;49289;51.670;5.624;2023-04-06T02:25:42;13.70;;;8.60;;
63193;SDS011;49289;51.670;5.624;2023-04-06T02:27:29;13.50;;;8.80;;
63193;SDS011;49289;51.670;5.624;2023-04-06T02:29:16;15.10;;;9.40;;
63193;SDS011;49289;51.670;5.624;2023-04-06T02:31:03;16.20;;;8.80;;
63193;SDS011;49289;51.670;5.624;2023-04-06T02:32:50;13.50;;;9.20;;
63193;SDS011;49289;51.670;5.624;2023-04-06T02:34:37;15.00;;;9.10;;
63193;SDS011;49289;51.670;5.624;2023-04-06T02:36:24;12.80;;;9.10;;
63193;SDS011;49289;51.670;5.624;2023-04-06T02:38:12;15.10;;;9.10;;
63193;SDS011;49289;51.670;5.624;2023-04-06T02:39:59;14.30;;;9.20;;
63193;SDS011;49289;51.670;5.624;2023-04-06T02:42:56;17.50;;;9.30;;
63193;SDS011;49289;51.670;5.624;2023-04-06T02:44:44;15.40;;;9.00;;
63193;SDS011;49289;51.670;5.624;2023-04-06T02:46:31;15.00;;;9.20;;
63193;SDS011;49289;51.670;5.624;2023-04-06T02:48:19;15.50;;;9.00;;
63193;SDS011;49289;51.670;5.624;2023-04-06T02:50:07;15.80;;;9.30;;
63193;SDS011;49289;51.670;5.624;2023-04-06T02:51:56;14.90;;;9.50;;
63193;SDS011;49289;51.670;5.624;2023-04-06T02:53:44;14.60;;;9.50;;
63193;SDS011;49289;51.670;5.624;2023-04-06T02:55:32;13.10;;;8.90;;
63193;SDS011;49289;51.670;5.624;2023-04-06T02:57:19;19.40;;;9.30;;
63193;SDS011;49289;51.670;5.624;2023-04-06T02:59:08;14.90;;;9.80;;
63193;SDS011;49289;51.670;5.624;2023-04-06T03:00:55;16.70;;;9.60;;
63193;SDS011;49289;51.670;5.624;2023-04-06T03:02:43;16.30;;;9.80;;
63193;SDS011;49289;51.670;5.624;2023-04-06T03:04:31;17.50;;;9.90;;
63193;SDS011;49289;51.670;5.624;2023-04-06T03:06:19;15.50;;;10.20;;
63193;SDS011;49289;51.670;5.624;2023-04-06T03:08:06;16.40;;;10.20;;
63193;SDS011;49289;51.670;5.624;2023-04-06T03:09:53;17.20;;;10.30;;
63193;SDS011;49289;51.670;5.624;2023-04-06T03:11:40;17.20;;;10.90;;
63193;SDS011;49289;51.670;5.624;2023-04-06T03:13:27;18.30;;;10.70;;
63193;SDS011;49289;51.670;5.624;2023-04-06T03:15:15;17.60;;;10.20;;
63193;SDS011;49289;51.670;5.624;2023-04-06T03:17:02;18.00;;;11.10;;
63193;SDS011;49289;51.670;5.624;2023-04-06T03:18:49;15.80;;;10.50;;
63193;SDS011;49289;51.670;5.624;2023-04-06T03:20:37;17.90;;;10.40;;
63193;SDS011;49289;51.670;5.624;2023-04-06T03:22:25;16.90;;;10.50;;
63193;SDS011;49289;51.670;5.624;2023-04-06T03:24:12;17.60;;;10.60;;
63193;SDS011;49289;51.670;5.624;2023-04-06T03:26:00;18.80;;;10.60;;
63193;SDS011;49289;51.670;5.624;2023-04-06T03:27:48;20.20;;;11.20;;
63193;SDS011;49289;51.670;5.624;2023-04-06T03:29:35;18.10;;;11.10;;
63193;SDS011;49289;51.670;5.624;2023-04-06T03:31:22;18.70;;;11.20;;
63193;SDS011;49289;51.670;5.624;2023-04-06T03:33:09;17.30;;;10.80;;
63193;SDS011;49289;51.670;5.624;2023-04-06T03:34:56;17.30;;;10.90;;
63193;SDS011;49289;51.670;5.624;2023-04-06T03:36:43;19.10;;;11.10;;
63193;SDS011;49289;51.670;5.624;2023-04-06T03:38:30;21.10;;;11.50;;
63193;SDS011;49289;51.670;5.624;2023-04-06T03:40:17;20.70;;;11.70;;
63193;SDS011;49289;51.670;5.624;2023-04-06T03:42:04;18.10;;;11.40;;
63193;SDS011;49289;51.670;5.624;2023-04-06T03:43:51;19.70;;;11.40;;
63193;SDS011;49289;51.670;5.624;2023-04-06T03:45:38;18.00;;;11.20;;
63193;SDS011;49289;51.670;5.624;2023-04-06T03:47:25;18.60;;;11.20;;
63193;SDS011;49289;51.670;5.624;2023-04-06T03:49:12;18.50;;;12.00;;
63193;SDS011;49289;51.670;5.624;2023-04-06T03:50:59;19.30;;;11.50;;
63193;SDS011;49289;51.670;5.624;2023-04-06T03:52:46;20.60;;;11.80;;
63193;SDS011;49289;51.670;5.624;2023-04-06T03:54:34;18.40;;;11.60;;
63193;SDS011;49289;51.670;5.624;2023-04-06T03:56:21;18.60;;;11.40;;
63193;SDS011;49289;51.670;5.624;2023-04-06T03:58:09;18.50;;;11.30;;
63193;SDS011;49289;51.670;5.624;2023-04-06T03:59:57;19.80;;;12.30;;
63193;SDS011;49289;51.670;5.624;2023-04-06T04:01:45;19.40;;;12.20;;
63193;SDS011;49289;51.670;5.624;2023-04-06T04:03:33;21.50;;;11.90;;
63193;SDS011;49289;51.670;5.624;2023-04-06T04:05:21;19.90;;;11.60;;
63193;SDS011;49289;51.670;5.624;2023-04-06T04:07:09;20.50;;;12.20;;
63193;SDS011;49289;51.670;5.624;2023-04-06T04:08:57;18.50;;;12.20;;
63193;SDS011;49289;51.670;5.624;2023-04-06T04:10:45;23.60;;;12.20;;
63193;SDS011;49289;51.670;5.624;2023-04-06T04:12:32;19.80;;;12.00;;
63193;SDS011;49289;51.670;5.624;2023-04-06T04:14:20;19.20;;;11.90;;
63193;SDS011;49289;51.670;5.624;2023-04-06T04:16:07;19.80;;;11.90;;
63193;SDS011;49289;51.670;5.624;2023-04-06T04:17:55;21.00;;;12.80;;
63193;SDS011;49289;51.670;5.624;2023-04-06T04:19:43;19.40;;;11.80;;
63193;SDS011;49289;51.670;5.624;2023-04-06T04:21:30;22.70;;;13.00;;
63193;SDS011;49289;51.670;5.624;2023-04-06T04:23:17;20.70;;;12.60;;
63193;SDS011;49289;51.670;5.624;2023-04-06T04:25:04;20.10;;;12.50;;
63193;SDS011;49289;51.670;5.624;2023-04-06T04:26:52;21.70;;;12.50;;
63193;SDS011;49289;51.670;5.624;2023-04-06T04:28:40;22.10;;;12.80;;
63193;SDS011;49289;51.670;5.624;2023-04-06T04:30:27;21.60;;;12.40;;
63193;SDS011;49289;51.670;5.624;2023-04-06T04:32:14;22.00;;;12.90;;
63193;SDS011;49289;51.670;5.624;2023-04-06T04:34:01;17.70;;;11.80;;
63193;SDS011;49289;51.670;5.624;2023-04-06T04:35:48;21.80;;;12.60;;
63193;SDS011;49289;51.670;5.624;2023-04-06T04:37:35;21.20;;;12.50;;
63193;SDS011;49289;51.670;5.624;2023-04-06T04:39:22;21.90;;;13.30;;
63193;SDS011;49289;51.670;5.624;2023-04-06T04:41:09;21.30;;;12.60;;
63193;SDS011;49289;51.670;5.624;2023-04-06T04:42:56;22.00;;;13.60;;
63193;SDS011;49289;51.670;5.624;2023-04-06T04:44:43;22.90;;;12.80;;
63193;SDS011;49289;51.670;5.624;2023-04-06T04:46:30;23.10;;;12.70;;
63193;SDS011;49289;51.670;5.624;2023-04-06T04:48:17;19.50;;;12.20;;
63193;SDS011;49289;51.670;5.624;2023-04-06T04:50:04;20.80;;;12.90;;
63193;SDS011;49289;51.670;5.624;2023-04-06T04:51:52;20.20;;;12.80;;
63193;SDS011;49289;51.670;5.624;2023-04-06T04:53:40;24.70;;;13.60;;
63193;SDS011;49289;51.670;5.624;2023-04-06T04:55:28;21.60;;;13.00;;
63193;SDS011;49289;51.670;5.624;2023-04-06T04:57:16;21.40;;;13.00;;
63193;SDS011;49289;51.670;5.624;2023-04-06T04:59:04;30.50;;;12.60;;
63193;SDS011;49289;51.670;5.624;2023-04-06T05:00:51;23.60;;;13.00;;
63193;SDS011;49289;51.670;5.624;2023-04-06T05:02:38;24.50;;;13.20;;
63193;SDS011;49289;51.670;5.624;2023-04-06T05:04:25;23.40;;;13.00;;
63193;SDS011;49289;51.670;5.624;2023-04-06T05:06:12;22.00;;;13.00;;
63193;SDS011;49289;51.670;5.624;2023-04-06T05:07:59;23.80;;;13.50;;
63193;SDS011;49289;51.670;5.624;2023-04-06T05:09:47;22.80;;;13.00;;
63193;SDS011;49289;51.670;5.624;2023-04-06T05:11:35;22.30;;;12.80;;
63193;SDS011;49289;51.670;5.624;2023-04-06T05:13:23;21.10;;;13.10;;
63193;SDS011;49289;51.670;5.624;2023-04-06T05:15:11;24.00;;;12.80;;
63193;SDS011;49289;51.670;5.624;2023-04-06T05:16:58;22.70;;;13.60;;
63193;SDS011;49289;51.670;5.624;2023-04-06T05:18:45;21.00;;;12.90;;
63193;SDS011;49289;51.670;5.624;2023-04-06T05:20:33;22.40;;;13.00;;
63193;SDS011;49289;51.670;5.624;2023-04-06T05:22:21;21.50;;;12.40;;
63193;SDS011;49289;51.670;5.624;2023-04-06T05:24:10;20.10;;;12.90;;
63193;SDS011;49289;51.670;5.624;2023-04-06T05:25:57;21.50;;;13.30;;
63193;SDS011;49289;51.670;5.624;2023-04-06T05:27:44;20.70;;;13.00;;
63193;SDS011;49289;51.670;5.624;2023-04-06T05:29:31;21.10;;;13.50;;
63193;SDS011;49289;51.670;5.624;2023-04-06T05:31:18;24.80;;;13.80;;
63193;SDS011;49289;51.670;5.624;2023-04-06T05:33:05;21.50;;;12.80;;
63193;SDS011;49289;51.670;5.624;2023-04-06T05:34:52;21.70;;;13.60;;
63193;SDS011;49289;51.670;5.624;2023-04-06T05:36:39;22.00;;;14.00;;
63193;SDS011;49289;51.670;5.624;2023-04-06T05:38:26;23.00;;;13.20;;
63193;SDS011;49289;51.670;5.624;2023-04-06T05:40:13;21.80;;;13.10;;
63193;SDS011;49289;51.670;5.624;2023-04-06T05:42:02;23.70;;;13.60;;
63193;SDS011;49289;51.670;5.624;2023-04-06T05:43:50;25.70;;;13.40;;
63193;SDS011;49289;51.670;5.624;2023-04-06T05:45:37;21.40;;;13.30;;
63193;SDS011;49289;51.670;5.624;2023-04-06T05:47:24;24.00;;;13.20;;
63193;SDS011;49289;51.670;5.624;2023-04-06T05:49:11;22.20;;;13.00;;
63193;SDS011;49289;51.670;5.624;2023-04-06T05:50:58;23.50;;;13.30;;
63193;SDS011;49289;51.670;5.624;2023-04-06T05:52:45;19.90;;;12.10;;
63193;SDS011;49289;51.670;5.624;2023-04-06T05:54:32;25.10;;;13.10;;
63193;SDS011;49289;51.670;5.624;2023-04-06T05:56:19;22.00;;;13.10;;
63193;SDS011;49289;51.670;5.624;2023-04-06T05:58:06;22.10;;;13.90;;
63193;SDS011;49289;51.670;5.624;2023-04-06T05:59:53;24.10;;;13.20;;
63193;SDS011;49289;51.670;5.624;2023-04-06T06:01:40;22.20;;;13.70;;
63193;SDS011;49289;51.670;5.624;2023-04-06T06:03:28;26.80;;;13.00;;
63193;SDS011;49289;51.670;5.624;2023-04-06T06:05:16;24.00;;;12.70;;
63193;SDS011;49289;51.670;5.624;2023-04-06T06:07:04;22.30;;;13.70;;
63193;SDS011;49289;51.670;5.624;2023-04-06T06:08:51;24.70;;;13.40;;
63193;SDS011;49289;51.670;5.624;2023-04-06T06:10:40;20.90;;;12.30;;
63193;SDS011;49289;51.670;5.624;2023-04-06T06:12:27;24.70;;;13.40;;
63193;SDS011;49289;51.670;5.624;2023-04-06T06:14:15;21.90;;;12.90;;
63193;SDS011;49289;51.670;5.624;2023-04-06T06:16:03;22.60;;;13.70;;
63193;SDS011;49289;51.670;5.624;2023-04-06T06:17:52;21.30;;;12.80;;
63193;SDS011;49289;51.670;5.624;2023-04-06T06:19:40;18.80;;;12.90;;
63193;SDS011;49289;51.670;5.624;2023-04-06T06:21:27;22.40;;;13.80;;
63193;SDS011;49289;51.670;5.624;2023-04-06T06:23:15;23.00;;;13.40;;
63193;SDS011;49289;51.670;5.624;2023-04-06T06:25:03;24.80;;;13.90;;
63193;SDS011;49289;51.670;5.624;2023-04-06T06:26:52;24.10;;;13.80;;
63193;SDS011;49289;51.670;5.624;2023-04-06T06:28:39;24.50;;;14.00;;
63193;SDS011;49289;51.670;5.624;2023-04-06T06:30:28;23.70;;;12.90;;
63193;SDS011;49289;51.670;5.624;2023-04-06T06:32:15;20.90;;;12.90;;
63193;SDS011;49289;51.670;5.624;2023-04-06T06:34:03;24.50;;;12.70;;
63193;SDS011;49289;51.670;5.624;2023-04-06T06:35:52;22.50;;;13.30;;
63193;SDS011;49289;51.670;5.624;2023-04-06T06:37:41;23.00;;;13.50;;
63193;SDS011;49289;51.670;5.624;2023-04-06T06:39:28;21.50;;;13.20;;
63193;SDS011;49289;51.670;5.624;2023-04-06T06:41:16;19.60;;;13.10;;
63193;SDS011;49289;51.670;5.624;2023-04-06T06:43:04;21.70;;;12.90;;
63193;SDS011;49289;51.670;5.624;2023-04-06T06:44:51;20.70;;;12.80;;
63193;SDS011;49289;51.670;5.624;2023-04-06T06:46:38;23.50;;;13.50;;
63193;SDS011;49289;51.670;5.624;2023-04-06T06:48:25;20.70;;;12.70;;
63193;SDS011;49289;51.670;5.624;2023-04-06T06:50:13;22.60;;;13.60;;
63193;SDS011;49289;51.670;5.624;2023-04-06T06:52:01;25.40;;;13.30;;
63193;SDS011;49289;51.670;5.624;2023-04-06T06:53:49;20.40;;;12.80;;
63193;SDS011;49289;51.670;5.624;2023-04-06T06:55:37;21.70;;;13.00;;
63193;SDS011;49289;51.670;5.624;2023-04-06T06:57:25;20.70;;;12.40;;
63193;SDS011;49289;51.670;5.624;2023-04-06T06:59:12;22.30;;;13.60;;
63193;SDS011;49289;51.670;5.624;2023-04-06T07:01:01;21.00;;;12.70;;
63193;SDS011;49289;51.670;5.624;2023-04-06T07:02:48;20.90;;;12.60;;
63193;SDS011;49289;51.670;5.624;2023-04-06T07:04:35;20.40;;;13.00;;
63193;SDS011;49289;51.670;5.624;2023-04-06T07:06:22;20.40;;;12.90;;
63193;SDS011;49289;51.670;5.624;2023-04-06T07:08:09;18.60;;;12.50;;
63193;SDS011;49289;51.670;5.624;2023-04-06T07:09:57;21.60;;;12.80;;
63193;SDS011;49289;51.670;5.624;2023-04-06T07:11:45;19.60;;;12.60;;
63193;SDS011;49289;51.670;5.624;2023-04-06T07:13:33;20.70;;;12.90;;
63193;SDS011;49289;51.670;5.624;2023-04-06T07:15:21;20.30;;;13.00;;
63193;SDS011;49289;51.670;5.624;2023-04-06T07:17:09;19.70;;;12.60;;
63193;SDS011;49289;51.670;5.624;2023-04-06T07:18:57;19.70;;;13.00;;
63193;SDS011;49289;51.670;5.624;2023-04-06T07:20:45;21.40;;;12.60;;
63193;SDS011;49289;51.670;5.624;2023-04-06T07:23:02;20.20;;;12.80;;
63193;SDS011;49289;51.670;5.624;2023-04-06T07:24:50;19.40;;;12.20;;
63193;SDS011;49289;51.670;5.624;2023-04-06T07:26:37;23.10;;;12.90;;
63193;SDS011;49289;51.670;5.624;2023-04-06T07:28:25;19.70;;;12.30;;
63193;SDS011;49289;51.670;5.624;2023-04-06T07:30:14;20.30;;;12.60;;
63193;SDS011;49289;51.670;5.624;2023-04-06T07:32:01;21.20;;;12.60;;
63193;SDS011;49289;51.670;5.624;2023-04-06T07:33:49;17.60;;;12.20;;
63193;SDS011;49289;51.670;5.624;2023-04-06T07:35:37;22.30;;;12.70;;
63193;SDS011;49289;51.670;5.624;2023-04-06T07:37:25;17.90;;;11.90;;
63193;SDS011;49289;51.670;5.624;2023-04-06T07:39:13;20.90;;;12.50;;
63193;SDS011;49289;51.670;5.624;2023-04-06T07:41:01;23.10;;;12.50;;
63193;SDS011;49289;51.670;5.624;2023-04-06T07:42:49;18.30;;;12.20;;
63193;SDS011;49289;51.670;5.624;2023-04-06T07:44:37;22.10;;;13.20;;
63193;SDS011;49289;51.670;5.624;2023-04-06T07:46:25;21.30;;;12.40;;
63193;SDS011;49289;51.670;5.624;2023-04-06T07:48:13;23.20;;;12.60;;
63193;SDS011;49289;51.670;5.624;2023-04-06T07:50:00;21.40;;;13.30;;
63193;SDS011;49289;51.670;5.624;2023-04-06T07:51:49;19.40;;;12.90;;
63193;SDS011;49289;51.670;5.624;2023-04-06T07:53:37;23.60;;;12.60;;
63193;SDS011;49289;51.670;5.624;2023-04-06T07:55:25;21.10;;;12.40;;
63193;SDS011;49289;51.670;5.624;2023-04-06T07:57:12;18.20;;;12.10;;
63193;SDS011;49289;51.670;5.624;2023-04-06T07:58:59;18.20;;;11.80;;
63193;SDS011;49289;51.670;5.624;2023-04-06T08:00:46;20.30;;;12.30;;
63193;SDS011;49289;51.670;5.624;2023-04-06T08:02:33;23.90;;;12.80;;
63193;SDS011;49289;51.670;5.624;2023-04-06T08:04:20;19.00;;;12.40;;
63193;SDS011;49289;51.670;5.624;2023-04-06T08:06:07;19.50;;;12.60;;
63193;SDS011;49289;51.670;5.624;2023-04-06T08:07:54;20.80;;;12.90;;
63193;SDS011;49289;51.670;5.624;2023-04-06T08:09:41;20.60;;;12.20;;
63193;SDS011;49289;51.670;5.624;2023-04-06T08:11:28;19.40;;;12.50;;
63193;SDS011;49289;51.670;5.624;2023-04-06T08:13:15;20.30;;;13.70;;
63193;SDS011;49289;51.670;5.624;2023-04-06T08:15:02;18.30;;;12.50;;
63193;SDS011;49289;51.670;5.624;2023-04-06T08:16:51;21.50;;;13.00;;
63193;SDS011;49289;51.670;5.624;2023-04-06T08:18:39;19.00;;;12.20;;
63193;SDS011;49289;51.670;5.624;2023-04-06T08:20:26;18.90;;;12.20;;
63193;SDS011;49289;51.670;5.624;2023-04-06T08:22:14;19.00;;;11.70;;
63193;SDS011;49289;51.670;5.624;2023-04-06T08:24:02;20.30;;;12.00;;
63193;SDS011;49289;51.670;5.624;2023-04-06T08:25:50;21.30;;;13.20;;
63193;SDS011;49289;51.670;5.624;2023-04-06T08:27:37;20.30;;;12.20;;
63193;SDS011;49289;51.670;5.624;2023-04-06T08:29:24;18.70;;;12.10;;
63193;SDS011;49289;51.670;5.624;2023-04-06T08:31:11;19.60;;;12.00;;
63193;SDS011;49289;51.670;5.624;2023-04-06T08:32:58;19.90;;;12.30;;
63193;SDS011;49289;51.670;5.624;2023-04-06T08:34:45;19.50;;;11.70;;
63193;SDS011;49289;51.670;5.624;2023-04-06T08:36:32;20.00;;;12.10;;
63193;SDS011;49289;51.670;5.624;2023-04-06T08:38:19;21.30;;;11.90;;
63193;SDS011;49289;51.670;5.624;2023-04-06T08:40:06;19.80;;;11.80;;
63193;SDS011;49289;51.670;5.624;2023-04-06T08:41:55;18.00;;;11.30;;
63193;SDS011;49289;51.670;5.624;2023-04-06T08:43:46;18.70;;;11.80;;
63193;SDS011;49289;51.670;5.624;2023-04-06T08:45:33;23.80;;;12.10;;
63193;SDS011;49289;51.670;5.624;2023-04-06T08:47:21;18.60;;;11.90;;
63193;SDS011;49289;51.670;5.624;2023-04-06T08:49:09;19.40;;;11.80;;
63193;SDS011;49289;51.670;5.624;2023-04-06T08:50:57;19.30;;;11.60;;
63193;SDS011;49289;51.670;5.624;2023-04-06T08:52:44;18.20;;;10.90;;
63193;SDS011;49289;51.670;5.624;2023-04-06T08:54:33;16.60;;;11.30;;
63193;SDS011;49289;51.670;5.624;2023-04-06T08:56:21;19.00;;;11.70;;
63193;SDS011;49289;51.670;5.624;2023-04-06T08:58:09;17.70;;;10.80;;
63193;SDS011;49289;51.670;5.624;2023-04-06T08:59:57;19.60;;;11.90;;
63193;SDS011;49289;51.670;5.624;2023-04-06T09:01:45;18.20;;;10.60;;
63193;SDS011;49289;51.670;5.624;2023-04-06T09:03:33;18.90;;;11.50;;
63193;SDS011;49289;51.670;5.624;2023-04-06T09:05:20;17.30;;;10.70;;
63193;SDS011;49289;51.670;5.624;2023-04-06T09:07:07;18.50;;;10.80;;
63193;SDS011;49289;51.670;5.624;2023-04-06T09:08:54;18.70;;;11.00;;
63193;SDS011;49289;51.670;5.624;2023-04-06T09:10:41;21.80;;;11.60;;
63193;SDS011;49289;51.670;5.624;2023-04-06T09:12:29;19.90;;;11.60;;
63193;SDS011;49289;51.670;5.624;2023-04-06T09:14:16;20.40;;;11.10;;
63193;SDS011;49289;51.670;5.624;2023-04-06T09:16:04;19.60;;;11.80;;
63193;SDS011;49289;51.670;5.624;2023-04-06T09:17:51;20.50;;;11.60;;
63193;SDS011;49289;51.670;5.624;2023-04-06T09:19:44;18.80;;;10.90;;
63193;SDS011;49289;51.670;5.624;2023-04-06T09:21:32;17.00;;;10.90;;
63193;SDS011;49289;51.670;5.624;2023-04-06T09:23:23;19.50;;;11.40;;
63193;SDS011;49289;51.670;5.624;2023-04-06T09:25:17;18.50;;;11.40;;
63193;SDS011;49289;51.670;5.624;2023-04-06T09:27:03;21.90;;;11.40;;
63193;SDS011;49289;51.670;5.624;2023-04-06T09:28:51;19.10;;;11.40;;
63193;SDS011;49289;51.670;5.624;2023-04-06T09:30:37;22.90;;;11.50;;
63193;SDS011;49289;51.670;5.624;2023-04-06T09:32:43;19.90;;;11.20;;
63193;SDS011;49289;51.670;5.624;2023-04-06T09:34:30;18.30;;;11.20;;
63193;SDS011;49289;51.670;5.624;2023-04-06T09:36:17;17.90;;;10.90;;
63193;SDS011;49289;51.670;5.624;2023-04-06T09:37:50;20.50;;;12.00;;
63193;SDS011;49289;51.670;5.624;2023-04-06T09:39:36;19.70;;;10.90;;
63193;SDS011;49289;51.670;5.624;2023-04-06T09:41:27;18.90;;;11.60;;
63193;SDS011;49289;51.670;5.624;2023-04-06T09:43:13;17.20;;;10.90;;
63193;SDS011;49289;51.670;5.624;2023-04-06T09:45:09;19.30;;;11.40;;
63193;SDS011;49289;51.670;5.624;2023-04-06T09:46:57;19.00;;;11.20;;
63193;SDS011;49289;51.670;5.624;2023-04-06T09:48:45;19.50;;;10.90;;
63193;SDS011;49289;51.670;5.624;2023-04-06T09:50:33;19.20;;;11.20;;
63193;SDS011;49289;51.670;5.624;2023-04-06T09:52:21;20.20;;;11.70;;
63193;SDS011;49289;51.670;5.624;2023-04-06T09:54:08;19.00;;;11.10;;
63193;SDS011;49289;51.670;5.624;2023-04-06T09:55:56;19.20;;;11.90;;
63193;SDS011;49289;51.670;5.624;2023-04-06T09:57:44;26.30;;;11.50;;
63193;SDS011;49289;51.670;5.624;2023-04-06T09:59:35;18.20;;;11.30;;
63193;SDS011;49289;51.670;5.624;2023-04-06T10:01:20;18.20;;;11.00;;
63193;SDS011;49289;51.670;5.624;2023-04-06T10:03:10;20.10;;;11.70;;
63193;SDS011;49289;51.670;5.624;2023-04-06T10:05:00;23.00;;;12.10;;
63193;SDS011;49289;51.670;5.624;2023-04-06T10:06:46;18.40;;;11.70;;
63193;SDS011;49289;51.670;5.624;2023-04-06T10:08:33;17.70;;;11.70;;
63193;SDS011;49289;51.670;5.624;2023-04-06T10:10:20;18.50;;;11.00;;
63193;SDS011;49289;51.670;5.624;2023-04-06T10:12:08;18.00;;;10.60;;
63193;SDS011;49289;51.670;5.624;2023-04-06T10:13:56;17.90;;;10.60;;
63193;SDS011;49289;51.670;5.624;2023-04-06T10:15:44;14.70;;;10.00;;
63193;SDS011;49289;51.670;5.624;2023-04-06T10:17:32;16.30;;;10.10;;
63193;SDS011;49289;51.670;5.624;2023-04-06T10:19:20;13.80;;;9.20;;
63193;SDS011;49289;51.670;5.624;2023-04-06T10:21:08;15.50;;;9.30;;
63193;SDS011;49289;51.670;5.624;2023-04-06T10:22:55;14.30;;;9.10;;
63193;SDS011;49289;51.670;5.624;2023-04-06T10:24:43;13.70;;;8.80;;
63193;SDS011;49289;51.670;5.624;2023-04-06T10:26:31;15.50;;;9.10;;
63193;SDS011;49289;51.670;5.624;2023-04-06T10:28:19;17.10;;;9.50;;
63193;SDS011;49289;51.670;5.624;2023-04-06T10:30:07;14.40;;;9.40;;
63193;SDS011;49289;51.670;5.624;2023-04-06T10:31:54;15.20;;;8.30;;
63193;SDS011;49289;51.670;5.624;2023-04-06T10:33:41;15.90;;;9.20;;